sensor_id;sensor_type;location;lat;lon;timestamp;P1;durP1;ratioP1;P2;durP2;ratioP2
21360;SDS011;10839;43.206;23.550;2023-02-26T00:01:18;14.23;;;5.07;;
21360;SDS011;10839;43.206;23.550;2023-02-26T00:03:55;23.80;;;5.68;;
21360;SDS011;10839;43.206;23.550;2023-02-26T00:06:23;18.65;;;5.22;;
21360;SDS011;10839;43.206;23.550;2023-02-26T00:08:50;14.18;;;5.15;;
21360;SDS011;10839;43.206;23.550;2023-02-26T00:11:17;14.70;;;5.97;;
21360;SDS011;10839;43.206;23.550;2023-02-26T00:13:43;18.63;;;6.00;;
21360;SDS011;10839;43.206;23.550;2023-02-26T00:18:53;14.20;;;5.28;;
21360;SDS011;10839;43.206;23.550;2023-02-26T00:21:21;22.40;;;6.07;;
21360;SDS011;10839;43.206;23.550;2023-02-26T00:23:49;14.68;;;5.38;;
21360;SDS011;10839;43.206;23.550;2023-02-26T00:26:15;19.02;;;5.70;;
21360;SDS011;10839;43.206;23.550;2023-02-26T00:28:41;20.42;;;5.50;;
21360;SDS011;10839;43.206;23.550;2023-02-26T00:31:07;16.05;;;4.50;;
21360;SDS011;10839;43.206;23.550;2023-02-26T00:33:34;16.58;;;5.63;;
21360;SDS011;10839;43.206;23.550;2023-02-26T00:42:16;20.63;;;5.38;;
21360;SDS011;10839;43.206;23.550;2023-02-26T00:44:42;17.40;;;5.53;;
21360;SDS011;10839;43.206;23.550;2023-02-26T00:55:10;21.02;;;5.72;;
21360;SDS011;10839;43.206;23.550;2023-02-26T00:57:36;17.20;;;4.93;;
21360;SDS011;10839;43.206;23.550;2023-02-26T01:00:03;15.32;;;4.25;;
21360;SDS011;10839;43.206;23.550;2023-02-26T01:02:32;13.15;;;5.43;;
21360;SDS011;10839;43.206;23.550;2023-02-26T01:04:59;13.95;;;4.22;;
21360;SDS011;10839;43.206;23.550;2023-02-26T01:07:25;20.55;;;4.90;;
21360;SDS011;10839;43.206;23.550;2023-02-26T01:09:53;20.23;;;5.03;;
21360;SDS011;10839;43.206;23.550;2023-02-26T01:12:19;16.38;;;5.35;;
21360;SDS011;10839;43.206;23.550;2023-02-26T01:14:45;13.70;;;5.00;;
21360;SDS011;10839;43.206;23.550;2023-02-26T01:19:51;15.60;;;5.32;;
21360;SDS011;10839;43.206;23.550;2023-02-26T01:22:21;17.05;;;4.63;;
21360;SDS011;10839;43.206;23.550;2023-02-26T01:24:48;17.98;;;5.47;;
21360;SDS011;10839;43.206;23.550;2023-02-26T01:27:24;21.65;;;6.90;;
21360;SDS011;10839;43.206;23.550;2023-02-26T01:29:50;18.50;;;5.13;;
21360;SDS011;10839;43.206;23.550;2023-02-26T01:32:28;22.20;;;4.80;;
21360;SDS011;10839;43.206;23.550;2023-02-26T01:35:04;18.80;;;5.28;;
21360;SDS011;10839;43.206;23.550;2023-02-26T01:43:26;14.77;;;5.10;;
21360;SDS011;10839;43.206;23.550;2023-02-26T01:48:50;17.75;;;5.18;;
21360;SDS011;10839;43.206;23.550;2023-02-26T01:51:38;15.60;;;4.65;;
21360;SDS011;10839;43.206;23.550;2023-02-26T01:54:11;17.40;;;5.57;;
21360;SDS011;10839;43.206;23.550;2023-02-26T01:56:38;21.33;;;5.30;;
21360;SDS011;10839;43.206;23.550;2023-02-26T01:59:05;25.20;;;5.47;;
21360;SDS011;10839;43.206;23.550;2023-02-26T02:01:37;15.85;;;4.72;;
21360;SDS011;10839;43.206;23.550;2023-02-26T02:04:05;15.65;;;4.72;;
21360;SDS011;10839;43.206;23.550;2023-02-26T02:06:36;16.45;;;4.70;;
21360;SDS011;10839;43.206;23.550;2023-02-26T02:09:04;17.92;;;5.25;;
21360;SDS011;10839;43.206;23.550;2023-02-26T02:11:31;13.38;;;4.10;;
21360;SDS011;10839;43.206;23.550;2023-02-26T02:14:00;9.57;;;4.60;;
21360;SDS011;10839;43.206;23.550;2023-02-26T02:17:01;13.48;;;5.15;;
21360;SDS011;10839;43.206;23.550;2023-02-26T02:22:30;17.58;;;4.10;;
21360;SDS011;10839;43.206;23.550;2023-02-26T02:28:19;18.23;;;4.65;;
21360;SDS011;10839;43.206;23.550;2023-02-26T02:33:33;18.90;;;5.15;;
21360;SDS011;10839;43.206;23.550;2023-02-26T02:36:19;16.80;;;4.90;;
21360;SDS011;10839;43.206;23.550;2023-02-26T02:39:02;19.70;;;5.18;;
21360;SDS011;10839;43.206;23.550;2023-02-26T02:41:38;17.87;;;4.53;;
21360;SDS011;10839;43.206;23.550;2023-02-26T02:44:11;13.48;;;4.20;;
21360;SDS011;10839;43.206;23.550;2023-02-26T02:46:42;20.75;;;4.95;;
21360;SDS011;10839;43.206;23.550;2023-02-26T02:51:55;15.60;;;4.60;;
21360;SDS011;10839;43.206;23.550;2023-02-26T02:54:46;17.52;;;5.45;;
21360;SDS011;10839;43.206;23.550;2023-02-26T02:57:33;16.40;;;4.47;;
21360;SDS011;10839;43.206;23.550;2023-02-26T03:00:07;14.20;;;4.30;;
21360;SDS011;10839;43.206;23.550;2023-02-26T03:05:04;15.88;;;5.18;;
21360;SDS011;10839;43.206;23.550;2023-02-26T03:07:31;17.35;;;4.50;;
21360;SDS011;10839;43.206;23.550;2023-02-26T03:10:09;25.77;;;4.57;;
21360;SDS011;10839;43.206;23.550;2023-02-26T03:12:36;18.45;;;4.32;;
21360;SDS011;10839;43.206;23.550;2023-02-26T03:15:02;17.05;;;4.53;;
21360;SDS011;10839;43.206;23.550;2023-02-26T03:17:32;15.10;;;4.10;;
21360;SDS011;10839;43.206;23.550;2023-02-26T03:20:23;16.48;;;3.88;;
21360;SDS011;10839;43.206;23.550;2023-02-26T03:23:16;17.98;;;3.90;;
21360;SDS011;10839;43.206;23.550;2023-02-26T03:25:46;17.38;;;4.90;;
21360;SDS011;10839;43.206;23.550;2023-02-26T03:32:05;13.50;;;3.60;;
21360;SDS011;10839;43.206;23.550;2023-02-26T03:36:58;20.90;;;4.57;;
21360;SDS011;10839;43.206;23.550;2023-02-26T03:39:38;18.55;;;4.78;;
21360;SDS011;10839;43.206;23.550;2023-02-26T03:42:17;12.63;;;3.42;;
21360;SDS011;10839;43.206;23.550;2023-02-26T03:45:05;17.25;;;3.60;;
21360;SDS011;10839;43.206;23.550;2023-02-26T03:47:38;16.33;;;5.13;;
21360;SDS011;10839;43.206;23.550;2023-02-26T03:50:10;14.35;;;3.97;;
21360;SDS011;10839;43.206;23.550;2023-02-26T03:52:49;9.75;;;2.92;;
21360;SDS011;10839;43.206;23.550;2023-02-26T03:55:37;13.45;;;3.42;;
21360;SDS011;10839;43.206;23.550;2023-02-26T03:58:38;11.88;;;3.55;;
21360;SDS011;10839;43.206;23.550;2023-02-26T04:04:31;14.80;;;3.67;;
21360;SDS011;10839;43.206;23.550;2023-02-26T04:07:11;16.15;;;4.45;;
21360;SDS011;10839;43.206;23.550;2023-02-26T04:09:42;14.15;;;3.92;;
21360;SDS011;10839;43.206;23.550;2023-02-26T04:12:11;18.42;;;3.80;;
21360;SDS011;10839;43.206;23.550;2023-02-26T04:14:41;17.77;;;4.10;;
21360;SDS011;10839;43.206;23.550;2023-02-26T04:17:07;13.75;;;3.80;;
21360;SDS011;10839;43.206;23.550;2023-02-26T04:19:34;13.30;;;3.70;;
21360;SDS011;10839;43.206;23.550;2023-02-26T04:22:01;9.95;;;2.92;;
21360;SDS011;10839;43.206;23.550;2023-02-26T04:24:27;16.10;;;4.32;;
21360;SDS011;10839;43.206;23.550;2023-02-26T04:26:57;13.63;;;3.45;;
21360;SDS011;10839;43.206;23.550;2023-02-26T04:29:24;17.17;;;3.55;;
21360;SDS011;10839;43.206;23.550;2023-02-26T04:31:49;10.68;;;2.72;;
21360;SDS011;10839;43.206;23.550;2023-02-26T04:34:15;12.80;;;4.07;;
21360;SDS011;10839;43.206;23.550;2023-02-26T04:36:41;15.68;;;3.67;;
21360;SDS011;10839;43.206;23.550;2023-02-26T04:39:08;12.77;;;3.55;;
21360;SDS011;10839;43.206;23.550;2023-02-26T04:41:35;9.82;;;3.20;;
21360;SDS011;10839;43.206;23.550;2023-02-26T04:44:02;11.63;;;3.38;;
21360;SDS011;10839;43.206;23.550;2023-02-26T04:46:33;14.80;;;3.92;;
21360;SDS011;10839;43.206;23.550;2023-02-26T04:48:59;19.98;;;4.47;;
21360;SDS011;10839;43.206;23.550;2023-02-26T04:51:25;21.27;;;5.90;;
21360;SDS011;10839;43.206;23.550;2023-02-26T04:53:52;12.13;;;3.85;;
21360;SDS011;10839;43.206;23.550;2023-02-26T04:56:18;11.50;;;3.63;;
21360;SDS011;10839;43.206;23.550;2023-02-26T04:58:45;16.10;;;4.68;;
21360;SDS011;10839;43.206;23.550;2023-02-26T05:01:15;16.83;;;4.05;;
21360;SDS011;10839;43.206;23.550;2023-02-26T05:03:41;11.30;;;3.42;;
21360;SDS011;10839;43.206;23.550;2023-02-26T05:06:08;14.63;;;3.80;;
21360;SDS011;10839;43.206;23.550;2023-02-26T05:08:35;15.38;;;3.25;;
21360;SDS011;10839;43.206;23.550;2023-02-26T05:11:05;15.80;;;3.60;;
21360;SDS011;10839;43.206;23.550;2023-02-26T05:13:32;11.70;;;3.50;;
21360;SDS011;10839;43.206;23.550;2023-02-26T05:15:57;9.10;;;3.30;;
21360;SDS011;10839;43.206;23.550;2023-02-26T05:18:23;17.10;;;3.35;;
21360;SDS011;10839;43.206;23.550;2023-02-26T05:20:52;19.20;;;3.95;;
21360;SDS011;10839;43.206;23.550;2023-02-26T05:23:20;16.60;;;3.65;;
21360;SDS011;10839;43.206;23.550;2023-02-26T05:25:46;18.67;;;3.33;;
21360;SDS011;10839;43.206;23.550;2023-02-26T05:28:14;10.65;;;3.63;;
21360;SDS011;10839;43.206;23.550;2023-02-26T05:30:40;13.68;;;3.88;;
21360;SDS011;10839;43.206;23.550;2023-02-26T05:33:06;18.20;;;3.40;;
21360;SDS011;10839;43.206;23.550;2023-02-26T05:35:32;16.75;;;4.20;;
21360;SDS011;10839;43.206;23.550;2023-02-26T05:37:58;16.55;;;4.40;;
21360;SDS011;10839;43.206;23.550;2023-02-26T05:40:24;13.85;;;3.42;;
21360;SDS011;10839;43.206;23.550;2023-02-26T05:42:50;19.13;;;3.65;;
21360;SDS011;10839;43.206;23.550;2023-02-26T05:45:16;19.02;;;3.55;;
21360;SDS011;10839;43.206;23.550;2023-02-26T05:47:43;17.95;;;4.72;;
21360;SDS011;10839;43.206;23.550;2023-02-26T05:50:09;21.40;;;3.53;;
21360;SDS011;10839;43.206;23.550;2023-02-26T05:52:35;20.27;;;4.03;;
21360;SDS011;10839;43.206;23.550;2023-02-26T05:55:01;17.20;;;3.38;;
21360;SDS011;10839;43.206;23.550;2023-02-26T05:57:27;17.08;;;4.25;;
21360;SDS011;10839;43.206;23.550;2023-02-26T05:59:53;19.17;;;3.72;;
21360;SDS011;10839;43.206;23.550;2023-02-26T06:02:18;13.57;;;3.58;;
21360;SDS011;10839;43.206;23.550;2023-02-26T06:04:45;18.92;;;3.75;;
21360;SDS011;10839;43.206;23.550;2023-02-26T06:07:11;16.25;;;4.60;;
21360;SDS011;10839;43.206;23.550;2023-02-26T06:09:37;12.90;;;3.78;;
21360;SDS011;10839;43.206;23.550;2023-02-26T06:12:03;15.75;;;3.20;;
21360;SDS011;10839;43.206;23.550;2023-02-26T06:14:31;32.75;;;7.80;;
21360;SDS011;10839;43.206;23.550;2023-02-26T06:16:57;38.25;;;11.38;;
21360;SDS011;10839;43.206;23.550;2023-02-26T06:19:23;18.73;;;4.50;;
21360;SDS011;10839;43.206;23.550;2023-02-26T06:21:49;16.65;;;4.13;;
21360;SDS011;10839;43.206;23.550;2023-02-26T06:24:15;15.65;;;3.88;;
21360;SDS011;10839;43.206;23.550;2023-02-26T06:26:41;12.07;;;3.20;;
21360;SDS011;10839;43.206;23.550;2023-02-26T06:29:07;16.95;;;3.28;;
21360;SDS011;10839;43.206;23.550;2023-02-26T06:31:33;22.40;;;5.20;;
21360;SDS011;10839;43.206;23.550;2023-02-26T06:33:59;16.02;;;3.90;;
21360;SDS011;10839;43.206;23.550;2023-02-26T06:36:25;34.05;;;4.60;;
21360;SDS011;10839;43.206;23.550;2023-02-26T06:38:50;21.90;;;4.53;;
21360;SDS011;10839;43.206;23.550;2023-02-26T06:41:16;27.40;;;4.07;;
21360;SDS011;10839;43.206;23.550;2023-02-26T06:43:42;14.32;;;3.25;;
21360;SDS011;10839;43.206;23.550;2023-02-26T06:46:08;15.25;;;3.53;;
21360;SDS011;10839;43.206;23.550;2023-02-26T06:48:34;26.45;;;4.13;;
21360;SDS011;10839;43.206;23.550;2023-02-26T06:51:00;23.15;;;4.25;;
21360;SDS011;10839;43.206;23.550;2023-02-26T06:53:26;18.90;;;3.60;;
21360;SDS011;10839;43.206;23.550;2023-02-26T06:55:51;11.90;;;3.30;;
21360;SDS011;10839;43.206;23.550;2023-02-26T06:58:18;23.25;;;4.30;;
21360;SDS011;10839;43.206;23.550;2023-02-26T07:00:45;18.92;;;3.97;;
21360;SDS011;10839;43.206;23.550;2023-02-26T07:03:12;22.27;;;5.30;;
21360;SDS011;10839;43.206;23.550;2023-02-26T07:05:41;20.40;;;4.28;;
21360;SDS011;10839;43.206;23.550;2023-02-26T07:08:07;23.80;;;3.80;;
21360;SDS011;10839;43.206;23.550;2023-02-26T07:10:34;27.02;;;4.35;;
21360;SDS011;10839;43.206;23.550;2023-02-26T07:13:01;16.45;;;3.50;;
21360;SDS011;10839;43.206;23.550;2023-02-26T07:15:27;22.48;;;4.07;;
21360;SDS011;10839;43.206;23.550;2023-02-26T07:17:53;18.20;;;3.72;;
21360;SDS011;10839;43.206;23.550;2023-02-26T07:20:19;18.33;;;4.05;;
21360;SDS011;10839;43.206;23.550;2023-02-26T07:22:47;18.63;;;4.47;;
21360;SDS011;10839;43.206;23.550;2023-02-26T07:25:14;16.98;;;3.30;;
21360;SDS011;10839;43.206;23.550;2023-02-26T07:27:40;19.88;;;4.50;;
21360;SDS011;10839;43.206;23.550;2023-02-26T07:30:06;17.83;;;3.72;;
21360;SDS011;10839;43.206;23.550;2023-02-26T07:32:33;20.30;;;4.10;;
21360;SDS011;10839;43.206;23.550;2023-02-26T07:35:01;22.67;;;4.80;;
21360;SDS011;10839;43.206;23.550;2023-02-26T07:37:26;18.98;;;5.22;;
21360;SDS011;10839;43.206;23.550;2023-02-26T07:39:53;18.50;;;3.65;;
21360;SDS011;10839;43.206;23.550;2023-02-26T07:42:20;16.42;;;3.63;;
21360;SDS011;10839;43.206;23.550;2023-02-26T07:44:45;18.95;;;3.63;;
21360;SDS011;10839;43.206;23.550;2023-02-26T07:47:12;18.55;;;3.83;;
21360;SDS011;10839;43.206;23.550;2023-02-26T07:49:38;18.13;;;4.18;;
21360;SDS011;10839;43.206;23.550;2023-02-26T07:52:04;19.20;;;3.88;;
21360;SDS011;10839;43.206;23.550;2023-02-26T07:54:33;22.98;;;4.05;;
21360;SDS011;10839;43.206;23.550;2023-02-26T07:57:00;16.05;;;4.00;;
21360;SDS011;10839;43.206;23.550;2023-02-26T07:59:26;19.92;;;3.65;;
21360;SDS011;10839;43.206;23.550;2023-02-26T08:01:52;17.15;;;3.40;;
21360;SDS011;10839;43.206;23.550;2023-02-26T08:04:18;16.17;;;4.00;;
21360;SDS011;10839;43.206;23.550;2023-02-26T08:06:44;16.70;;;3.55;;
21360;SDS011;10839;43.206;23.550;2023-02-26T08:09:10;31.58;;;3.63;;
21360;SDS011;10839;43.206;23.550;2023-02-26T08:11:36;21.40;;;4.28;;
21360;SDS011;10839;43.206;23.550;2023-02-26T08:14:07;17.55;;;3.13;;
21360;SDS011;10839;43.206;23.550;2023-02-26T08:16:36;21.52;;;3.85;;
21360;SDS011;10839;43.206;23.550;2023-02-26T08:19:02;21.48;;;4.13;;
21360;SDS011;10839;43.206;23.550;2023-02-26T08:21:28;16.75;;;4.13;;
21360;SDS011;10839;43.206;23.550;2023-02-26T08:23:53;17.45;;;4.03;;
21360;SDS011;10839;43.206;23.550;2023-02-26T08:26:19;17.90;;;3.90;;
21360;SDS011;10839;43.206;23.550;2023-02-26T08:28:45;23.73;;;3.95;;
21360;SDS011;10839;43.206;23.550;2023-02-26T08:31:12;15.65;;;3.45;;
21360;SDS011;10839;43.206;23.550;2023-02-26T08:33:39;18.45;;;3.88;;
21360;SDS011;10839;43.206;23.550;2023-02-26T08:36:06;20.05;;;3.38;;
21360;SDS011;10839;43.206;23.550;2023-02-26T08:38:32;24.88;;;4.53;;
21360;SDS011;10839;43.206;23.550;2023-02-26T08:40:58;17.27;;;3.67;;
21360;SDS011;10839;43.206;23.550;2023-02-26T08:43:25;18.48;;;4.03;;
21360;SDS011;10839;43.206;23.550;2023-02-26T08:45:51;19.65;;;4.03;;
21360;SDS011;10839;43.206;23.550;2023-02-26T08:48:18;22.00;;;4.38;;
21360;SDS011;10839;43.206;23.550;2023-02-26T08:50:44;17.92;;;3.38;;
21360;SDS011;10839;43.206;23.550;2023-02-26T08:53:10;23.30;;;3.85;;
21360;SDS011;10839;43.206;23.550;2023-02-26T08:55:36;21.60;;;3.97;;
21360;SDS011;10839;43.206;23.550;2023-02-26T08:58:02;32.20;;;6.63;;
21360;SDS011;10839;43.206;23.550;2023-02-26T09:00:28;19.42;;;3.53;;
21360;SDS011;10839;43.206;23.550;2023-02-26T09:02:54;21.15;;;4.03;;
21360;SDS011;10839;43.206;23.550;2023-02-26T09:05:20;24.52;;;3.60;;
21360;SDS011;10839;43.206;23.550;2023-02-26T09:07:46;23.20;;;3.65;;
21360;SDS011;10839;43.206;23.550;2023-02-26T09:10:12;19.08;;;3.53;;
21360;SDS011;10839;43.206;23.550;2023-02-26T09:12:39;20.50;;;3.85;;
21360;SDS011;10839;43.206;23.550;2023-02-26T09:15:06;20.85;;;3.90;;
21360;SDS011;10839;43.206;23.550;2023-02-26T09:17:33;15.65;;;3.40;;
21360;SDS011;10839;43.206;23.550;2023-02-26T09:19:59;21.95;;;3.83;;
21360;SDS011;10839;43.206;23.550;2023-02-26T09:22:25;24.63;;;3.88;;
21360;SDS011;10839;43.206;23.550;2023-02-26T09:24:51;17.42;;;3.50;;
21360;SDS011;10839;43.206;23.550;2023-02-26T09:27:17;22.90;;;4.30;;
21360;SDS011;10839;43.206;23.550;2023-02-26T09:29:43;30.30;;;6.38;;
21360;SDS011;10839;43.206;23.550;2023-02-26T09:32:09;27.23;;;4.13;;
21360;SDS011;10839;43.206;23.550;2023-02-26T09:34:35;26.08;;;5.15;;
21360;SDS011;10839;43.206;23.550;2023-02-26T09:37:02;26.42;;;5.20;;
21360;SDS011;10839;43.206;23.550;2023-02-26T09:39:29;24.63;;;4.07;;
21360;SDS011;10839;43.206;23.550;2023-02-26T09:41:56;20.73;;;5.57;;
21360;SDS011;10839;43.206;23.550;2023-02-26T09:44:29;24.00;;;4.30;;
21360;SDS011;10839;43.206;23.550;2023-02-26T09:52:08;27.00;;;4.68;;
21360;SDS011;10839;43.206;23.550;2023-02-26T09:54:39;28.65;;;3.67;;
21360;SDS011;10839;43.206;23.550;2023-02-26T09:57:09;20.35;;;3.83;;
21360;SDS011;10839;43.206;23.550;2023-02-26T09:59:45;28.02;;;3.65;;
21360;SDS011;10839;43.206;23.550;2023-02-26T10:10:02;19.85;;;4.25;;
21360;SDS011;10839;43.206;23.550;2023-02-26T10:12:41;24.00;;;5.50;;
21360;SDS011;10839;43.206;23.550;2023-02-26T10:15:17;24.98;;;3.83;;
21360;SDS011;10839;43.206;23.550;2023-02-26T10:20:36;20.30;;;3.92;;
21360;SDS011;10839;43.206;23.550;2023-02-26T10:25:47;27.75;;;5.50;;
21360;SDS011;10839;43.206;23.550;2023-02-26T10:31:22;21.50;;;3.92;;
21360;SDS011;10839;43.206;23.550;2023-02-26T10:34:14;22.85;;;5.10;;
21360;SDS011;10839;43.206;23.550;2023-02-26T10:42:24;30.45;;;5.80;;
21360;SDS011;10839;43.206;23.550;2023-02-26T10:45:43;22.13;;;4.00;;
21360;SDS011;10839;43.206;23.550;2023-02-26T10:50:50;16.73;;;3.85;;
21360;SDS011;10839;43.206;23.550;2023-02-26T10:53:21;32.17;;;5.85;;
21360;SDS011;10839;43.206;23.550;2023-02-26T10:55:52;28.45;;;6.53;;
21360;SDS011;10839;43.206;23.550;2023-02-26T10:58:27;25.33;;;4.75;;
21360;SDS011;10839;43.206;23.550;2023-02-26T11:00:53;23.83;;;4.18;;
21360;SDS011;10839;43.206;23.550;2023-02-26T11:03:29;22.95;;;4.43;;
21360;SDS011;10839;43.206;23.550;2023-02-26T11:05:59;16.50;;;3.85;;
21360;SDS011;10839;43.206;23.550;2023-02-26T11:08:35;17.17;;;3.70;;
21360;SDS011;10839;43.206;23.550;2023-02-26T11:11:06;25.40;;;4.03;;
21360;SDS011;10839;43.206;23.550;2023-02-26T11:13:33;21.42;;;4.53;;
21360;SDS011;10839;43.206;23.550;2023-02-26T11:16:10;16.50;;;3.83;;
21360;SDS011;10839;43.206;23.550;2023-02-26T11:18:43;17.52;;;4.35;;
21360;SDS011;10839;43.206;23.550;2023-02-26T11:21:25;18.73;;;4.30;;
21360;SDS011;10839;43.206;23.550;2023-02-26T11:24:02;17.80;;;3.83;;
21360;SDS011;10839;43.206;23.550;2023-02-26T11:26:35;17.70;;;4.00;;
21360;SDS011;10839;43.206;23.550;2023-02-26T11:29:03;17.83;;;4.45;;
21360;SDS011;10839;43.206;23.550;2023-02-26T11:31:30;19.35;;;3.60;;
21360;SDS011;10839;43.206;23.550;2023-02-26T11:33:58;20.67;;;3.33;;
21360;SDS011;10839;43.206;23.550;2023-02-26T11:36:28;15.60;;;3.70;;
21360;SDS011;10839;43.206;23.550;2023-02-26T11:39:01;18.63;;;3.88;;
21360;SDS011;10839;43.206;23.550;2023-02-26T11:41:37;20.50;;;3.30;;
21360;SDS011;10839;43.206;23.550;2023-02-26T11:44:10;18.27;;;3.13;;
21360;SDS011;10839;43.206;23.550;2023-02-26T11:46:41;20.10;;;3.55;;
21360;SDS011;10839;43.206;23.550;2023-02-26T11:49:10;23.40;;;3.33;;
21360;SDS011;10839;43.206;23.550;2023-02-26T11:51:41;13.63;;;3.13;;
21360;SDS011;10839;43.206;23.550;2023-02-26T11:54:20;23.75;;;3.78;;
21360;SDS011;10839;43.206;23.550;2023-02-26T11:56:48;17.30;;;3.90;;
21360;SDS011;10839;43.206;23.550;2023-02-26T11:59:22;20.10;;;3.40;;
21360;SDS011;10839;43.206;23.550;2023-02-26T12:01:50;12.90;;;3.05;;
21360;SDS011;10839;43.206;23.550;2023-02-26T12:04:19;12.48;;;3.42;;
21360;SDS011;10839;43.206;23.550;2023-02-26T12:06:51;15.52;;;4.28;;
21360;SDS011;10839;43.206;23.550;2023-02-26T12:09:19;17.27;;;3.47;;
21360;SDS011;10839;43.206;23.550;2023-02-26T12:22:40;16.83;;;3.97;;
21360;SDS011;10839;43.206;23.550;2023-02-26T12:36:09;16.30;;;3.42;;
21360;SDS011;10839;43.206;23.550;2023-02-26T12:55:50;16.08;;;3.15;;
21360;SDS011;10839;43.206;23.550;2023-02-26T12:58:44;14.98;;;3.55;;
21360;SDS011;10839;43.206;23.550;2023-02-26T13:12:30;17.98;;;3.38;;
21360;SDS011;10839;43.206;23.550;2023-02-26T13:21:01;19.48;;;3.10;;
21360;SDS011;10839;43.206;23.550;2023-02-26T13:26:22;17.95;;;3.13;;
21360;SDS011;10839;43.206;23.550;2023-02-26T13:28:54;16.92;;;3.85;;
21360;SDS011;10839;43.206;23.550;2023-02-26T13:31:26;20.05;;;4.20;;
21360;SDS011;10839;43.206;23.550;2023-02-26T13:33:57;22.20;;;3.60;;
21360;SDS011;10839;43.206;23.550;2023-02-26T13:36:27;21.92;;;5.20;;
21360;SDS011;10839;43.206;23.550;2023-02-26T13:52:28;13.55;;;3.30;;
21360;SDS011;10839;43.206;23.550;2023-02-26T13:54:56;17.55;;;3.42;;
21360;SDS011;10839;43.206;23.550;2023-02-26T14:00:07;24.23;;;4.65;;
21360;SDS011;10839;43.206;23.550;2023-02-26T14:02:51;17.45;;;4.53;;
21360;SDS011;10839;43.206;23.550;2023-02-26T14:05:31;22.38;;;4.53;;
21360;SDS011;10839;43.206;23.550;2023-02-26T14:10:56;18.08;;;3.53;;
21360;SDS011;10839;43.206;23.550;2023-02-26T14:13:33;18.92;;;3.72;;
21360;SDS011;10839;43.206;23.550;2023-02-26T14:24:22;23.80;;;4.07;;
21360;SDS011;10839;43.206;23.550;2023-02-26T14:27:08;21.83;;;3.33;;
21360;SDS011;10839;43.206;23.550;2023-02-26T14:32:30;19.80;;;3.65;;
21360;SDS011;10839;43.206;23.550;2023-02-26T14:34:58;26.08;;;4.28;;
21360;SDS011;10839;43.206;23.550;2023-02-26T14:40:04;21.58;;;3.38;;
21360;SDS011;10839;43.206;23.550;2023-02-26T14:42:35;16.63;;;3.70;;
21360;SDS011;10839;43.206;23.550;2023-02-26T14:47:45;23.25;;;3.88;;
21360;SDS011;10839;43.206;23.550;2023-02-26T14:50:14;28.35;;;3.50;;
21360;SDS011;10839;43.206;23.550;2023-02-26T14:52:46;17.75;;;4.20;;
21360;SDS011;10839;43.206;23.550;2023-02-26T14:55:34;29.63;;;7.40;;
21360;SDS011;10839;43.206;23.550;2023-02-26T15:00:47;20.67;;;5.28;;
21360;SDS011;10839;43.206;23.550;2023-02-26T15:09:14;25.25;;;11.40;;
21360;SDS011;10839;43.206;23.550;2023-02-26T15:12:18;27.73;;;12.18;;
21360;SDS011;10839;43.206;23.550;2023-02-26T15:17:29;31.05;;;14.30;;
21360;SDS011;10839;43.206;23.550;2023-02-26T15:25:42;34.38;;;15.70;;
21360;SDS011;10839;43.206;23.550;2023-02-26T15:28:11;31.00;;;15.38;;
21360;SDS011;10839;43.206;23.550;2023-02-26T15:30:43;31.13;;;16.10;;
21360;SDS011;10839;43.206;23.550;2023-02-26T15:33:13;33.60;;;16.02;;
21360;SDS011;10839;43.206;23.550;2023-02-26T15:35:42;34.67;;;15.35;;
21360;SDS011;10839;43.206;23.550;2023-02-26T15:38:09;32.97;;;15.68;;
21360;SDS011;10839;43.206;23.550;2023-02-26T15:40:35;49.10;;;24.58;;
21360;SDS011;10839;43.206;23.550;2023-02-26T15:43:02;51.58;;;27.50;;
21360;SDS011;10839;43.206;23.550;2023-02-26T15:45:36;35.72;;;18.73;;
21360;SDS011;10839;43.206;23.550;2023-02-26T15:48:19;33.30;;;17.23;;
21360;SDS011;10839;43.206;23.550;2023-02-26T15:50:52;31.90;;;16.25;;
21360;SDS011;10839;43.206;23.550;2023-02-26T15:53:23;32.67;;;15.95;;
21360;SDS011;10839;43.206;23.550;2023-02-26T15:55:55;31.60;;;16.35;;
21360;SDS011;10839;43.206;23.550;2023-02-26T15:58:30;37.00;;;18.05;;
21360;SDS011;10839;43.206;23.550;2023-02-26T16:01:16;29.38;;;15.75;;
21360;SDS011;10839;43.206;23.550;2023-02-26T16:03:49;32.08;;;16.15;;
21360;SDS011;10839;43.206;23.550;2023-02-26T16:06:23;28.92;;;15.32;;
21360;SDS011;10839;43.206;23.550;2023-02-26T16:08:58;30.90;;;14.88;;
21360;SDS011;10839;43.206;23.550;2023-02-26T16:11:27;32.05;;;15.93;;
21360;SDS011;10839;43.206;23.550;2023-02-26T16:13:57;32.40;;;15.98;;
21360;SDS011;10839;43.206;23.550;2023-02-26T16:16:28;33.88;;;17.45;;
21360;SDS011;10839;43.206;23.550;2023-02-26T16:19:26;34.58;;;15.63;;
21360;SDS011;10839;43.206;23.550;2023-02-26T16:22:03;33.75;;;16.90;;
21360;SDS011;10839;43.206;23.550;2023-02-26T16:24:34;95.33;;;46.83;;
21360;SDS011;10839;43.206;23.550;2023-02-26T16:27:01;33.72;;;16.55;;
21360;SDS011;10839;43.206;23.550;2023-02-26T16:29:33;33.70;;;18.13;;
21360;SDS011;10839;43.206;23.550;2023-02-26T16:32:02;39.25;;;18.08;;
21360;SDS011;10839;43.206;23.550;2023-02-26T16:36:57;30.83;;;15.88;;
21360;SDS011;10839;43.206;23.550;2023-02-26T16:39:34;30.67;;;15.52;;
21360;SDS011;10839;43.206;23.550;2023-02-26T16:42:01;33.63;;;15.95;;
21360;SDS011;10839;43.206;23.550;2023-02-26T16:44:39;29.25;;;14.80;;
21360;SDS011;10839;43.206;23.550;2023-02-26T16:47:10;31.63;;;14.57;;
21360;SDS011;10839;43.206;23.550;2023-02-26T16:49:37;34.05;;;15.55;;
21360;SDS011;10839;43.206;23.550;2023-02-26T16:52:05;27.50;;;13.63;;
21360;SDS011;10839;43.206;23.550;2023-02-26T16:54:35;27.80;;;13.90;;
21360;SDS011;10839;43.206;23.550;2023-02-26T16:57:18;21.58;;;12.82;;
21360;SDS011;10839;43.206;23.550;2023-02-26T16:59:50;29.30;;;13.48;;
21360;SDS011;10839;43.206;23.550;2023-02-26T17:02:28;28.77;;;13.50;;
21360;SDS011;10839;43.206;23.550;2023-02-26T17:05:00;47.85;;;21.65;;
21360;SDS011;10839;43.206;23.550;2023-02-26T17:07:32;32.85;;;16.15;;
21360;SDS011;10839;43.206;23.550;2023-02-26T17:10:15;34.40;;;17.10;;
21360;SDS011;10839;43.206;23.550;2023-02-26T17:12:46;82.63;;;40.90;;
21360;SDS011;10839;43.206;23.550;2023-02-26T17:15:18;36.03;;;16.65;;
21360;SDS011;10839;43.206;23.550;2023-02-26T17:17:52;29.65;;;14.40;;
21360;SDS011;10839;43.206;23.550;2023-02-26T17:20:21;35.15;;;14.57;;
21360;SDS011;10839;43.206;23.550;2023-02-26T17:22:49;27.30;;;12.85;;
21360;SDS011;10839;43.206;23.550;2023-02-26T17:25:16;24.67;;;13.15;;
21360;SDS011;10839;43.206;23.550;2023-02-26T17:27:46;27.02;;;13.93;;
21360;SDS011;10839;43.206;23.550;2023-02-26T17:30:14;29.70;;;15.23;;
21360;SDS011;10839;43.206;23.550;2023-02-26T17:32:43;30.02;;;14.75;;
21360;SDS011;10839;43.206;23.550;2023-02-26T17:35:11;29.77;;;13.55;;
21360;SDS011;10839;43.206;23.550;2023-02-26T17:37:41;22.83;;;12.13;;
21360;SDS011;10839;43.206;23.550;2023-02-26T17:42:48;26.98;;;11.70;;
21360;SDS011;10839;43.206;23.550;2023-02-26T17:45:16;22.92;;;11.52;;
21360;SDS011;10839;43.206;23.550;2023-02-26T17:47:44;31.42;;;13.30;;
21360;SDS011;10839;43.206;23.550;2023-02-26T17:53:03;27.17;;;12.32;;
21360;SDS011;10839;43.206;23.550;2023-02-26T17:55:29;27.20;;;12.68;;
21360;SDS011;10839;43.206;23.550;2023-02-26T17:57:55;28.30;;;12.88;;